Overview Statistics Trail Chart Weather Telemetry Raw packets
 

This is the latest recevied weather packets stored in our database for station/object OK1FET-4. If no packets are shown the sender has not sent any weather packets the latest 10 day(s).

<< 41 42 43 44 45 46 47 >>
Time Temp. Humidity Pressure Rain* Wind** Luminosity Snow
1788381733 15.56° C 100% 1021 hPa - - - -
1788381433 15.56° C 100% 1020.9 hPa - - - -
1788381132 15.56° C 100% 1020.9 hPa - - - -
1788380832 15.56° C 100% 1020.8 hPa - - - -
1788380531 15° C 100% 1021.1 hPa - - - -
1788380231 15.56° C 100% 1021.2 hPa - - - -
1788379930 15.56° C 100% 1021.2 hPa - - - -
1788379630 16.11° C 100% 1021.2 hPa - - - -
1788379329 17.22° C 100% 1020.9 hPa - - - -
1788379029 17.22° C 100% 1020.7 hPa - - - -
1788378728 17.22° C 100% 1020.7 hPa - - - -
1788378427 16.67° C 100% 1020.7 hPa - - - -
1788378127 16.11° C 100% 1020.7 hPa - - - -
1788377826 16.11° C 100% 1020.7 hPa - - - -
1788377526 15.56° C 100% 1020.8 hPa - - - -
1788377225 16.11° C 100% 1020.7 hPa - - - -
1788376925 16.67° C 100% 1020.5 hPa - - - -
1788376624 16.67° C 100% 1020.5 hPa - - - -
1788376323 16.67° C 100% 1020.5 hPa - - - -
1788376023 16.67° C 100% 1020.4 hPa - - - -
1788375722 16.67° C 100% 1020.4 hPa - - - -
1788375422 16.11° C 100% 1020.4 hPa - - - -
1788375121 16.11° C 100% 1020.4 hPa - - - -
1788374821 15.56° C 100% 1020.3 hPa - - - -
1788374520 15.56° C 100% 1020.3 hPa - - - -

* Rain since midnight (hover to see other rain measurements)
** Current wind speed in m/s (hover to see current wind gust speed)